Terminal Aerodrome Forecast
Issued by NWS Sterling, VA

Home | Current Version | Previous Version | Text Only | Print | Product List | Glossary On
Versions: 1 2 3 4 5 6 7 8 9 10 11 12 13 14 15 16 17
468
FTUS41 KLWX 272340
TAFCHO
TAF
KCHO 272340Z 2800/2824 15004KT P6SM BKN060
     FM280700 VRB03KT 2SM BR BKN070
     FM281200 VRB03KT 3SM -SHRA BR BKN050
     FM281500 21006KT P6SM -SHRA BKN060
     FM282200 25006KT P6SM -SHRA BKN050=

USA.gov is the U.S. government's official web portal to all federal, state and local government web resources and services.